<?xml version="1.0" encoding="UTF-8"?>
<gpx version="1.0" creator="Trackator" xmlns:xsi="http://www.w3.org/2001/XMLSchema-instance" xmlns="http://www.topografix.com/GPX/1/0" xmlns:topografix="http://www.topografix.com/GPX/Private/TopoGrafix/0/1" xsi:schemaLocation="http://www.topografix.com/GPX/1/0 http://www.topografix.com/GPX/1/0/gpx.xsd http://www.topografix.com/GPX/Private/TopoGrafix/0/1 http://www.topografix.com/GPX/Private/TopoGrafix/0/1/topografix.xsd">
<metadata>
<link href="http://www.trackator.com">
<text>Trackator</text>
</link>
</metadata>
<time>2015-07-14T15:46:37Z</time>
<trk>
<name>Track: </name>
<desc>Running</desc>
<trkseg>
<trkpt lat="53.3479440" lon="18.4461482">
<ele>102</ele>
<time>2015-07-14T15:46:37Z</time>
</trkpt>
<trkpt lat="53.3479456" lon="18.4461477">
<ele>102</ele>
<time>2015-07-14T15:46:42Z</time>
</trkpt>
<trkpt lat="53.3479439" lon="18.4461486">
<ele>102</ele>
<time>2015-07-14T15:46:44Z</time>
</trkpt>
<trkpt lat="53.3479432" lon="18.4461490">
<ele>102</ele>
<time>2015-07-14T15:46:46Z</time>
</trkpt>
<trkpt lat="53.3479435" lon="18.4461490">
<ele>102</ele>
<time>2015-07-14T15:46:48Z</time>
</trkpt>
<trkpt lat="53.3479435" lon="18.4461489">
<ele>102</ele>
<time>2015-07-14T15:46:50Z</time>
</trkpt>
<trkpt lat="53.3479436" lon="18.4461488">
<ele>102</ele>
<time>2015-07-14T15:46:52Z</time>
</trkpt>
<trkpt lat="53.3479434" lon="18.4461488">
<ele>102</ele>
<time>2015-07-14T15:46:54Z</time>
</trkpt>
<trkpt lat="53.3479434" lon="18.4461487">
<ele>102</ele>
<time>2015-07-14T15:46:56Z</time>
</trkpt>
<trkpt lat="53.3479435" lon="18.4461486">
<ele>102</ele>
<time>2015-07-14T15:46:58Z</time>
</trkpt>
<trkpt lat="53.3479433" lon="18.4461485">
<ele>102</ele>
<time>2015-07-14T15:47:02Z</time>
</trkpt>
<trkpt lat="53.3479430" lon="18.4461484">
<ele>102</ele>
<time>2015-07-14T15:47:04Z</time>
</trkpt>
<trkpt lat="53.3479429" lon="18.4461483">
<ele>102</ele>
<time>2015-07-14T15:47:06Z</time>
</trkpt>
<trkpt lat="53.3479429" lon="18.4461481">
<ele>102</ele>
<time>2015-07-14T15:47:08Z</time>
</trkpt>
<trkpt lat="53.3479428" lon="18.4461481">
<ele>102</ele>
<time>2015-07-14T15:47:10Z</time>
</trkpt>
<trkpt lat="53.3479426" lon="18.4461479">
<ele>102</ele>
<time>2015-07-14T15:47:12Z</time>
</trkpt>
<trkpt lat="53.3479425" lon="18.4461478">
<ele>102</ele>
<time>2015-07-14T15:47:14Z</time>
</trkpt>
<trkpt lat="53.3479422" lon="18.4461477">
<ele>102</ele>
<time>2015-07-14T15:47:16Z</time>
</trkpt>
<trkpt lat="53.3479418" lon="18.4461472">
<ele>102</ele>
<time>2015-07-14T15:47:20Z</time>
</trkpt>
<trkpt lat="53.3479418" lon="18.4461470">
<ele>102</ele>
<time>2015-07-14T15:47:22Z</time>
</trkpt>
<trkpt lat="53.3479416" lon="18.4461469">
<ele>102</ele>
<time>2015-07-14T15:47:24Z</time>
</trkpt>
<trkpt lat="53.3479418" lon="18.4461468">
<ele>102</ele>
<time>2015-07-14T15:47:28Z</time>
</trkpt>
<trkpt lat="53.3479420" lon="18.4461469">
<ele>102</ele>
<time>2015-07-14T15:47:30Z</time>
</trkpt>
<trkpt lat="53.3479423" lon="18.4461469">
<ele>102</ele>
<time>2015-07-14T15:47:32Z</time>
</trkpt>
<trkpt lat="53.3479423" lon="18.4461470">
<ele>102</ele>
<time>2015-07-14T15:47:34Z</time>
</trkpt>
<trkpt lat="53.3479423" lon="18.4461470">
<ele>102</ele>
<time>2015-07-14T15:47:36Z</time>
</trkpt>
<trkpt lat="53.3479425" lon="18.4461470">
<ele>102</ele>
<time>2015-07-14T15:47:38Z</time>
</trkpt>
<trkpt lat="53.3479558" lon="18.4461498">
<ele>100</ele>
<time>2015-07-14T15:47:40Z</time>
</trkpt>
<trkpt lat="53.3479706" lon="18.4461591">
<ele>100</ele>
<time>2015-07-14T15:47:42Z</time>
</trkpt>
<trkpt lat="53.3479841" lon="18.4461455">
<ele>99</ele>
<time>2015-07-14T15:47:44Z</time>
</trkpt>
<trkpt lat="53.3479955" lon="18.4461406">
<ele>99</ele>
<time>2015-07-14T15:47:46Z</time>
</trkpt>
<trkpt lat="53.3479932" lon="18.4461538">
<ele>99</ele>
<time>2015-07-14T15:47:48Z</time>
</trkpt>
<trkpt lat="53.3479832" lon="18.4461681">
<ele>99</ele>
<time>2015-07-14T15:47:50Z</time>
</trkpt>
<trkpt lat="53.3479708" lon="18.4461858">
<ele>99</ele>
<time>2015-07-14T15:47:52Z</time>
</trkpt>
<trkpt lat="53.3479597" lon="18.4462153">
<ele>99</ele>
<time>2015-07-14T15:47:54Z</time>
</trkpt>
<trkpt lat="" lon="">
<ele></ele>
<time>2015-07-14TZ</time>
</trkpt>
</trkseg>
</trk>
<wpt lat="" lon="">
	<name></name>
	<desc></desc>
	<cmt></cmt>
	<photoid></photoid>
	<type></type>
</wpt>
</gpx>
